Time;durP1;ratioP1;P1;durP2;ratioP2;P2;SDS_P1;SDS_P2;PMS_P1;PMS_P2;Temp;Humidity;BMP_temperature;BMP_pressure;BME280_temperature;BME280_humidity;BME280_pressure;Samples;Min_cycle;Max_cycle;Signal;HPM_P1;HPM_P2
2022/02/18 00:00:40;;;;;;;5.38;2.28;;;6.10;99.90;;;;;;4982899;28;20210;-81
2022/02/18 00:03:07;;;;;;;13.70;2.97;;;6.00;99.90;;;;;;4981478;28;20261;-81
2022/02/18 00:05:34;;;;;;;6.28;2.40;;;5.80;99.90;;;;;;4988026;28;20684;-81
2022/02/18 00:08:00;;;;;;;4.30;2.00;;;6.00;99.90;;;;;;4982072;28;20201;-81
2022/02/18 00:10:27;;;;;;;7.00;2.20;;;6.00;99.90;;;;;;4981550;28;20220;-82
2022/02/18 00:12:54;;;;;;;7.68;2.60;;;6.00;99.90;;;;;;4981035;28;20229;-81
2022/02/18 00:15:22;;;;;;;11.85;4.47;;;6.00;99.90;;;;;;4980780;28;20685;-79
2022/02/18 00:17:48;;;;;;;6.15;3.00;;;6.00;99.90;;;;;;4981281;28;20268;-80
2022/02/18 00:20:15;;;;;;;7.32;2.20;;;6.10;99.90;;;;;;4981753;28;20214;-81
2022/02/18 00:22:42;;;;;;;2.95;1.75;;;5.90;99.90;;;;;;4981083;28;20285;-81
2022/02/18 00:25:10;;;;;;;8.35;2.03;;;5.90;99.90;;;;;;4981418;28;20256;-81
2022/02/18 00:27:37;;;;;;;9.98;2.25;;;5.90;99.90;;;;;;4981188;28;20212;-81
2022/02/18 00:30:06;;;;;;;2.35;1.60;;;5.80;99.90;;;;;;4980351;28;20205;-80
2022/02/18 00:32:34;;;;;;;1.45;1.33;;;5.90;99.90;;;;;;4986246;28;20225;-81
2022/02/18 00:35:01;;;;;;;3.53;2.05;;;5.90;99.90;;;;;;4988984;28;20226;-81
2022/02/18 00:37:29;;;;;;;7.13;3.00;;;5.90;99.90;;;;;;4987658;28;20206;-83
2022/02/18 00:39:56;;;;;;;8.20;2.17;;;5.90;99.90;;;;;;4987503;28;20206;-82
2022/02/18 00:42:23;;;;;;;3.80;1.90;;;6.00;99.90;;;;;;4984545;28;20700;-81
2022/02/18 00:44:50;;;;;;;6.25;1.95;;;5.90;99.90;;;;;;4985327;28;20206;-81
2022/02/18 00:47:16;;;;;;;2.78;1.42;;;5.90;99.90;;;;;;4984722;28;20661;-80
2022/02/18 00:49:45;;;;;;;10.40;3.42;;;6.00;99.90;;;;;;4983616;28;20241;-82
2022/02/18 00:52:11;;;;;;;6.82;2.13;;;5.70;99.90;;;;;;4981153;28;20256;-82
2022/02/18 00:54:38;;;;;;;7.28;3.33;;;5.90;99.90;;;;;;4982496;28;20245;-81
2022/02/18 00:57:05;;;;;;;5.82;1.90;;;5.90;99.90;;;;;;4992983;28;20209;-81
2022/02/18 00:59:31;;;;;;;5.90;1.75;;;5.90;99.90;;;;;;4997323;28;20206;-81
2022/02/18 01:01:58;;;;;;;9.60;2.20;;;5.80;99.90;;;;;;4990762;28;20631;-81
2022/02/18 01:04:24;;;;;;;5.78;2.40;;;5.80;99.90;;;;;;4982073;28;20202;-82
2022/02/18 01:06:52;;;;;;;5.28;1.95;;;5.80;99.90;;;;;;4982287;28;20284;-81
2022/02/18 01:09:19;;;;;;;8.43;2.10;;;6.50;99.90;;;;;;4982351;28;20205;-82
2022/02/18 01:11:45;;;;;;;6.95;2.00;;;5.80;99.90;;;;;;4981376;28;20284;-82
2022/02/18 01:14:12;;;;;;;4.72;1.70;;;5.80;99.90;;;;;;4980811;28;20260;-82
2022/02/18 01:36:52;;;;;;;5.47;2.20;;;5.70;99.90;;;;;;4980597;28;20572;-82
2022/02/18 01:39:18;;;;;;;2.67;1.45;;;5.70;99.90;;;;;;4980769;28;20206;-82
2022/02/18 01:41:45;;;;;;;7.72;2.10;;;5.60;99.90;;;;;;4979918;28;20237;-82
2022/02/18 01:44:12;;;;;;;2.67;1.58;;;5.70;99.90;;;;;;4980176;28;20233;-81
2022/02/18 01:46:38;;;;;;;5.60;2.53;;;5.70;99.90;;;;;;4980204;28;20210;-82
2022/02/18 01:49:05;;;;;;;4.85;1.80;;;5.70;99.90;;;;;;4979277;28;20206;-83
2022/02/18 01:51:32;;;;;;;6.95;2.00;;;5.60;99.90;;;;;;4979559;28;20229;-82
2022/02/18 01:54:00;;;;;;;8.30;2.13;;;5.60;99.90;;;;;;4981008;28;20232;-82
2022/02/18 01:56:26;;;;;;;7.93;1.90;;;5.60;99.90;;;;;;4980222;28;20233;-82
2022/02/18 01:58:53;;;;;;;5.40;1.70;;;5.60;99.90;;;;;;4980110;28;20202;-82
2022/02/18 02:01:19;;;;;;;5.90;1.88;;;5.50;99.90;;;;;;4986733;28;20587;-82
2022/02/18 02:03:46;;;;;;;4.07;1.90;;;5.60;99.90;;;;;;4981577;28;20226;-82
2022/02/18 02:06:14;;;;;;;6.05;1.92;;;5.50;99.90;;;;;;4981566;28;20660;-80
2022/02/18 02:08:41;;;;;;;7.72;2.65;;;5.50;99.90;;;;;;4980014;28;20316;-81
2022/02/18 02:11:09;;;;;;;2.92;1.70;;;5.40;99.90;;;;;;4979276;28;20216;-82
2022/02/18 02:13:38;;;;;;;4.32;2.53;;;5.50;99.90;;;;;;4983861;28;20202;-83
2022/02/18 02:16:05;;;;;;;12.45;2.70;;;5.50;99.90;;;;;;4980422;28;20216;-83
2022/02/18 02:18:32;;;;;;;3.20;1.52;;;5.50;99.90;;;;;;4984245;28;20206;-82
2022/02/18 02:20:58;;;;;;;3.15;1.48;;;5.40;99.90;;;;;;4985419;28;20209;-82
2022/02/18 02:23:26;;;;;;;7.03;1.80;;;5.50;99.90;;;;;;4984200;28;20229;-82
2022/02/18 02:25:53;;;;;;;9.68;2.15;;;5.50;99.90;;;;;;4983140;28;20563;-82
2022/02/18 02:28:20;;;;;;;7.13;2.67;;;5.50;99.90;;;;;;4982491;28;20233;-82
2022/02/18 02:30:47;;;;;;;3.58;1.63;;;5.40;99.90;;;;;;4994592;28;20719;-80
2022/02/18 02:33:14;;;;;;;4.18;2.50;;;5.40;99.90;;;;;;4999968;28;20209;-80
2022/02/18 02:35:40;;;;;;;8.43;2.33;;;5.40;99.90;;;;;;5000507;28;20222;-81
2022/02/18 02:38:07;;;;;;;5.93;1.98;;;5.40;99.90;;;;;;4996286;28;20210;-79
2022/02/18 02:40:35;;;;;;;2.05;1.85;;;5.40;99.90;;;;;;4992917;28;20579;-82
2022/02/18 02:43:02;;;;;;;5.13;1.77;;;5.40;99.90;;;;;;4984600;28;20225;-81
2022/02/18 02:45:28;;;;;;;4.05;1.77;;;5.40;99.90;;;;;;4986448;28;20210;-80
2022/02/18 02:47:55;;;;;;;8.40;1.83;;;5.40;99.90;;;;;;4993269;28;20213;-82
2022/02/18 02:50:22;;;;;;;5.32;2.10;;;5.40;99.90;;;;;;4997021;28;20210;-82
2022/02/18 02:52:48;;;;;;;2.67;1.85;;;5.40;99.90;;;;;;4998301;28;20229;-82
2022/02/18 02:55:15;;;;;;;6.90;1.80;;;5.40;99.90;;;;;;4999282;28;20217;-81
2022/02/18 02:57:44;;;;;;;8.48;1.90;;;5.30;99.90;;;;;;4996859;28;20218;-81
2022/02/18 03:00:12;;;;;;;4.85;2.35;;;5.30;99.90;;;;;;4989493;28;20293;-83
2022/02/18 03:02:39;;;;;;;8.07;3.13;;;5.40;99.90;;;;;;4986094;28;20586;-82
2022/02/18 03:05:07;;;;;;;6.25;2.20;;;5.30;99.90;;;;;;4984949;28;20744;-82
2022/02/18 03:07:34;;;;;;;5.60;1.80;;;5.30;99.90;;;;;;4985784;28;20216;-81
2022/02/18 03:10:01;;;;;;;3.00;1.80;;;5.30;99.90;;;;;;4990007;28;20300;-81
2022/02/18 03:12:28;;;;;;;5.45;2.33;;;5.30;99.90;;;;;;4990161;28;20236;-80
2022/02/18 03:14:56;;;;;;;3.58;1.85;;;5.30;99.90;;;;;;4989628;28;20316;-80
2022/02/18 03:17:23;;;;;;;9.35;3.15;;;5.30;99.90;;;;;;4990395;28;20210;-82
2022/02/18 03:19:50;;;;;;;5.75;2.03;;;5.20;99.90;;;;;;4988356;28;20229;-80
2022/02/18 03:22:17;;;;;;;6.90;2.08;;;5.20;99.90;;;;;;4984451;28;20229;-82
2022/02/18 03:24:44;;;;;;;4.18;1.95;;;5.20;99.90;;;;;;4983585;28;20537;-81
2022/02/18 03:27:11;;;;;;;5.88;1.63;;;5.20;99.90;;;;;;4981840;28;20677;-81
2022/02/18 03:29:38;;;;;;;6.03;2.40;;;5.10;99.90;;;;;;4983254;28;20203;-81
2022/02/18 03:32:07;;;;;;;3.67;1.73;;;5.20;99.90;;;;;;4989570;28;20313;-81
2022/02/18 03:34:34;;;;;;;6.10;2.00;;;5.20;99.90;;;;;;4983267;28;20225;-81
2022/02/18 03:37:00;;;;;;;8.98;2.53;;;5.20;99.90;;;;;;4988653;28;20194;-81
2022/02/18 03:39:27;;;;;;;6.15;1.48;;;5.00;99.90;;;;;;4987777;28;20691;-81
2022/02/18 03:41:54;;;;;;;5.03;2.58;;;5.20;99.90;;;;;;4983861;28;20280;-80
2022/02/18 03:44:20;;;;;;;6.65;2.13;;;5.40;99.90;;;;;;4988844;28;20201;-82
2022/02/18 03:46:47;;;;;;;9.98;2.22;;;5.20;99.90;;;;;;4986931;28;20582;-79
2022/02/18 03:49:15;;;;;;;4.55;2.35;;;5.20;99.90;;;;;;4982299;28;20216;-82
2022/02/18 03:51:41;;;;;;;11.25;2.25;;;5.10;99.90;;;;;;4981499;28;20264;-81
2022/02/18 03:54:08;;;;;;;10.48;2.42;;;5.10;99.90;;;;;;4985677;28;20212;-80
2022/02/18 03:56:35;;;;;;;5.15;1.65;;;5.10;99.90;;;;;;4992284;28;20205;-81
2022/02/18 03:59:01;;;;;;;3.53;2.20;;;5.10;99.90;;;;;;4983545;28;20232;-82
2022/02/18 04:01:28;;;;;;;6.82;2.05;;;5.10;99.90;;;;;;4992652;28;20253;-81
2022/02/18 04:50:15;;;;;;;5.53;2.50;;;4.90;99.90;;;;;;5019132;28;20200;-84
2022/02/18 05:00:32;;;;;;;9.52;2.83;;;4.80;99.90;;;;;;4866985;29;20292;-87
2022/02/18 05:10:46;;;;;;;3.25;1.73;;;6.20;99.90;;;;;;4931346;28;20278;-86
2022/02/18 05:31:32;;;;;;;4.28;2.10;;;4.70;99.90;;;;;;4803858;30;20208;-85
2022/02/18 05:34:46;;;;;;;3.22;2.17;;;4.70;99.90;;;;;;4801719;29;20235;-86
2022/02/18 05:41:28;;;;;;;4.35;2.55;;;4.70;99.90;;;;;;4760845;30;20284;-84
2022/02/18 05:44:39;;;;;;;6.88;2.53;;;4.70;99.90;;;;;;4835034;29;20229;-85
2022/02/18 05:47:48;;;;;;;6.47;2.80;;;4.20;99.90;;;;;;4901180;29;20256;-85
2022/02/18 06:12:44;;;;;;;11.15;2.78;;;5.00;99.90;;;;;;5021986;22;20256;-85
2022/02/18 06:15:11;;;;;;;11.07;2.90;;;4.70;99.90;;;;;;5021834;28;20243;-85
2022/02/18 06:17:39;;;;;;;6.72;2.80;;;4.60;99.90;;;;;;5021834;28;20189;-84
2022/02/18 06:20:07;;;;;;;9.73;3.30;;;4.60;99.90;;;;;;5021642;28;20189;-85
2022/02/18 06:22:41;;;;;;;7.72;2.72;;;4.60;99.90;;;;;;5012786;28;20232;-85
2022/02/18 06:25:09;;;;;;;4.45;2.85;;;4.60;99.90;;;;;;5006985;28;20185;-85
2022/02/18 06:27:36;;;;;;;9.80;3.53;;;4.60;99.90;;;;;;5016701;28;20208;-85
2022/02/18 06:30:05;;;;;;;11.90;2.90;;;4.40;99.90;;;;;;5021148;28;20185;-85
2022/02/18 06:32:32;;;;;;;10.77;3.40;;;4.60;99.90;;;;;;5019791;28;20225;-84
2022/02/18 06:34:59;;;;;;;6.57;2.95;;;4.50;99.90;;;;;;5021542;28;20240;-86
2022/02/18 06:37:26;;;;;;;11.55;3.00;;;4.70;99.90;;;;;;5021841;28;20185;-86
2022/02/18 06:39:53;;;;;;;7.75;3.10;;;4.60;99.90;;;;;;5019846;28;20232;-85
2022/02/18 06:42:19;;;;;;;12.73;3.13;;;4.40;99.90;;;;;;5021637;28;20209;-86
2022/02/18 06:44:46;;;;;;;5.05;3.13;;;4.60;99.90;;;;;;5020345;28;20228;-85
2022/02/18 06:47:14;;;;;;;7.55;3.38;;;4.60;99.90;;;;;;5019608;28;20189;-84
2022/02/18 06:49:44;;;;;;;8.23;3.53;;;4.60;99.90;;;;;;5019617;28;20209;-85
2022/02/18 06:52:11;;;;;;;11.68;4.07;;;4.50;99.90;;;;;;5019724;28;20213;-85
2022/02/18 06:54:38;;;;;;;5.35;3.63;;;4.60;99.90;;;;;;5019946;28;20232;-85
2022/02/18 06:57:05;;;;;;;8.52;4.88;;;4.60;99.90;;;;;;5019445;28;20356;-84
2022/02/18 06:59:32;;;;;;;5.70;3.33;;;4.50;99.90;;;;;;5019706;28;20205;-85
2022/02/18 07:01:59;;;;;;;8.80;3.55;;;4.50;99.90;;;;;;5017259;28;20283;-86
2022/02/18 07:04:28;;;;;;;4.07;3.60;;;5.00;99.90;;;;;;5018258;28;20201;-85
2022/02/18 07:06:55;;;;;;;8.77;3.42;;;4.50;99.90;;;;;;5016822;28;20620;-84
2022/02/18 07:09:21;;;;;;;12.25;4.32;;;4.50;99.90;;;;;;5016585;28;20232;-84
2022/02/18 07:11:48;;;;;;;15.20;4.55;;;4.50;99.90;;;;;;5007633;28;20291;-85
2022/02/18 07:14:15;;;;;;;9.57;4.65;;;4.30;99.90;;;;;;5004329;28;20189;-85
2022/02/18 07:16:42;;;;;;;12.00;6.20;;;4.70;99.90;;;;;;5004907;28;20595;-85
2022/02/18 07:19:09;;;;;;;19.02;8.55;;;4.60;99.90;;;;;;5002872;28;20248;-85
2022/02/18 07:21:38;;;;;;;8.80;6.45;;;4.70;99.90;;;;;;5002285;28;20704;-85
2022/02/18 07:24:06;;;;;;;11.85;6.88;;;4.70;99.90;;;;;;5004932;28;20205;-84
2022/02/18 07:26:35;;;;;;;14.60;6.97;;;4.70;99.90;;;;;;5002716;28;20259;-85
2022/02/18 07:29:02;;;;;;;10.32;6.05;;;4.70;99.90;;;;;;5005348;28;20636;-84
2022/02/18 07:31:29;;;;;;;12.48;6.95;;;4.70;99.90;;;;;;5010605;28;20225;-84
2022/02/18 07:33:56;;;;;;;13.38;7.07;;;5.00;99.90;;;;;;5018119;28;20205;-84
2022/02/18 07:36:23;;;;;;;34.47;16.73;;;5.10;99.90;;;;;;5017625;28;20225;-84
2022/02/18 07:38:51;;;;;;;10.73;6.32;;;5.20;99.90;;;;;;5016240;28;20272;-84
2022/02/18 07:41:18;;;;;;;12.32;6.45;;;5.20;99.90;;;;;;5007465;28;20710;-84
2022/02/18 07:43:44;;;;;;;10.68;5.65;;;5.30;99.90;;;;;;5114483;22;20271;-83
2022/02/18 07:46:11;;;;;;;13.75;5.03;;;5.30;99.90;;;;;;5019242;28;20220;-85
2022/02/18 07:48:38;;;;;;;10.32;6.43;;;5.50;99.90;;;;;;5020329;28;20204;-84
2022/02/18 07:51:06;;;;;;;11.95;5.20;;;5.40;99.90;;;;;;5019390;28;20185;-80
2022/02/18 07:53:33;;;;;;;9.40;6.03;;;5.50;99.90;;;;;;5019766;28;20220;-82
2022/02/18 07:56:01;;;;;;;12.93;5.85;;;5.60;99.90;;;;;;5019617;28;20240;-83
2022/02/18 07:58:28;;;;;;;12.30;4.65;;;5.60;99.90;;;;;;5020094;28;20265;-83
2022/02/18 08:00:55;;;;;;;14.88;9.30;;;5.70;99.90;;;;;;5018729;28;20215;-84
2022/02/18 08:03:22;;;;;;;7.88;5.32;;;5.80;99.90;;;;;;5007992;28;20248;-84
2022/02/18 08:05:49;;;;;;;9.38;5.70;;;5.70;99.90;;;;;;5008064;28;20269;-84
2022/02/18 08:08:16;;;;;;;7.63;4.95;;;5.70;99.90;;;;;;5005308;28;20277;-84
2022/02/18 08:10:43;;;;;;;10.65;6.38;;;5.70;99.90;;;;;;5008210;28;20205;-83
2022/02/18 08:13:11;;;;;;;12.30;6.22;;;5.80;99.90;;;;;;5005249;28;20279;-83
2022/02/18 08:15:38;;;;;;;7.60;5.60;;;5.80;99.90;;;;;;5005623;28;20197;-83
2022/02/18 08:18:05;;;;;;;8.60;5.60;;;5.90;99.90;;;;;;5005869;28;20237;-83
2022/02/18 08:20:32;;;;;;;13.88;5.55;;;5.90;99.90;;;;;;5005943;28;20277;-83
2022/02/18 08:22:58;;;;;;;16.42;6.18;;;6.00;99.90;;;;;;5006214;28;20229;-83
2022/02/18 08:25:25;;;;;;;6.10;5.15;;;6.00;99.90;;;;;;5012933;28;20208;-83
2022/02/18 08:27:52;;;;;;;7.32;4.90;;;6.10;99.90;;;;;;5018380;28;20205;-83
2022/02/18 08:30:21;;;;;;;6.22;4.85;;;6.10;99.90;;;;;;5018901;28;20241;-83
2022/02/18 08:32:47;;;;;;;11.73;5.07;;;6.10;99.90;;;;;;5019211;28;20239;-84
2022/02/18 08:35:14;;;;;;;11.32;5.55;;;6.10;99.90;;;;;;5018057;28;20193;-83
2022/02/18 08:37:43;;;;;;;13.98;5.20;;;6.40;99.90;;;;;;5013742;28;20224;-85
2022/02/18 08:40:11;;;;;;;9.82;4.00;;;6.30;99.90;;;;;;5004712;28;20302;-84
2022/02/18 08:42:37;;;;;;;11.00;4.95;;;6.30;99.90;;;;;;5004272;28;20233;-84
2022/02/18 08:45:05;;;;;;;16.00;5.97;;;6.30;99.90;;;;;;5004081;28;20238;-84
2022/02/18 08:47:33;;;;;;;10.30;5.47;;;6.30;99.90;;;;;;5004342;28;20208;-84
2022/02/18 08:50:00;;;;;;;11.15;5.55;;;6.30;99.90;;;;;;5003151;28;20211;-84
2022/02/18 08:52:27;;;;;;;8.77;4.82;;;6.40;99.90;;;;;;5003238;28;20232;-84
2022/02/18 08:54:54;;;;;;;8.50;4.45;;;6.50;99.90;;;;;;5003039;28;20268;-82
2022/02/18 08:57:21;;;;;;;8.48;4.75;;;6.40;99.90;;;;;;5003463;28;20323;-84
2022/02/18 08:59:47;;;;;;;8.57;4.97;;;6.60;99.90;;;;;;5004767;28;20213;-84
2022/02/18 09:02:14;;;;;;;8.73;4.25;;;6.70;99.90;;;;;;5003630;28;20268;-85
2022/02/18 09:04:42;;;;;;;9.65;5.68;;;6.60;99.90;;;;;;5004411;28;20209;-83
2022/02/18 09:07:09;;;;;;;8.68;5.50;;;6.60;99.90;;;;;;5003590;28;20208;-83
2022/02/18 09:09:36;;;;;;;6.10;5.20;;;6.70;99.90;;;;;;5005391;28;20204;-84
2022/02/18 09:12:03;;;;;;;10.65;3.83;;;6.90;99.90;;;;;;5003636;28;20224;-84
2022/02/18 09:14:30;;;;;;;7.93;4.85;;;6.80;99.90;;;;;;5009406;28;20204;-83
2022/02/18 09:16:57;;;;;;;10.85;4.88;;;6.90;99.90;;;;;;5017008;28;20292;-84
2022/02/18 09:19:23;;;;;;;5.85;4.40;;;7.00;99.90;;;;;;5017767;28;20177;-83
2022/02/18 09:21:51;;;;;;;7.10;5.10;;;7.10;99.90;;;;;;5007893;28;20255;-84
2022/02/18 09:24:18;;;;;;;9.68;5.03;;;7.30;99.90;;;;;;5003492;28;20205;-83
2022/02/18 09:26:45;;;;;;;5.30;4.68;;;7.30;99.90;;;;;;5003143;28;20212;-83
2022/02/18 09:29:12;;;;;;;8.65;4.82;;;7.10;99.90;;;;;;5002771;28;20287;-84
2022/02/18 09:31:38;;;;;;;7.82;4.53;;;7.10;99.90;;;;;;5010285;28;20228;-83
2022/02/18 09:34:05;;;;;;;8.27;4.82;;;8.30;99.90;;;;;;5012052;28;20205;-83
2022/02/18 09:36:32;;;;;;;6.55;3.95;;;7.40;99.90;;;;;;5013156;28;20221;-83
2022/02/18 09:39:00;;;;;;;16.73;5.05;;;7.30;99.90;;;;;;5013511;28;20212;-83
2022/02/18 09:41:27;;;;;;;8.65;4.47;;;7.70;99.90;;;;;;5015504;28;20389;-84
2022/02/18 09:43:54;;;;;;;9.37;4.27;;;8.40;99.90;;;;;;5014952;28;20205;-83
2022/02/18 09:46:21;;;;;;;13.95;4.25;;;7.70;99.90;;;;;;5015966;28;20399;-83
2022/02/18 09:48:48;;;;;;;9.52;4.43;;;7.70;99.90;;;;;;5018322;28;20200;-83
2022/02/18 09:51:16;;;;;;;7.90;3.75;;;7.70;99.90;;;;;;5018266;28;20195;-83
2022/02/18 09:53:43;;;;;;;8.82;4.18;;;7.70;99.90;;;;;;5015883;28;20229;-83
2022/02/18 09:56:12;;;;;;;5.97;2.90;;;7.60;99.90;;;;;;5017319;28;20205;-83
2022/02/18 09:58:39;;;;;;;6.07;3.65;;;7.70;99.90;;;;;;5016723;28;20415;-83
2022/02/18 10:01:15;;;;;;;6.07;4.10;;;7.80;99.90;;;;;;5011577;28;20241;-85
2022/02/18 10:03:42;;;;;;;6.33;3.20;;;7.80;99.90;;;;;;5008558;28;20195;-83
2022/02/18 10:06:09;;;;;;;9.43;4.03;;;7.90;99.90;;;;;;5009633;28;20444;-83
2022/02/18 10:08:37;;;;;;;7.80;4.33;;;8.00;99.90;;;;;;5006459;28;20463;-84
2022/02/18 10:11:09;;;;;;;11.40;4.35;;;8.20;99.90;;;;;;5007269;28;20514;-84
2022/02/18 10:13:39;;;;;;;8.83;3.77;;;8.20;99.90;;;;;;5006434;28;20201;-84
2022/02/18 10:16:11;;;;;;;6.20;4.40;;;8.20;99.90;;;;;;5005173;28;20440;-83
2022/02/18 10:18:52;;;;;;;6.43;3.40;;;8.50;99.90;;;;;;5012364;28;20417;-85
2022/02/18 10:21:21;;;;;;;6.77;2.93;;;8.20;99.90;;;;;;5010012;28;20773;-84
2022/02/18 10:23:48;;;;;;;9.00;3.00;;;8.00;99.90;;;;;;5005532;28;20484;-85
2022/02/18 10:26:14;;;;;;;5.93;4.13;;;8.10;99.90;;;;;;5004237;28;20415;-84
2022/02/18 10:28:57;;;;;;;8.27;3.80;;;8.00;99.90;;;;;;5003228;28;20472;-85
2022/02/18 10:31:28;;;;;;;8.80;3.00;;;8.30;99.90;;;;;;5006738;28;20454;-85
2022/02/18 10:34:17;;;;;;;8.27;3.63;;;8.20;99.90;;;;;;5005666;28;20444;-85
2022/02/18 10:36:45;;;;;;;9.43;3.93;;;8.20;99.90;;;;;;5005867;28;20451;-85
2022/02/18 10:39:27;;;;;;;9.13;3.80;;;8.20;99.90;;;;;;5007679;28;20464;-84
2022/02/18 10:41:57;;;;;;;6.50;3.43;;;8.30;99.90;;;;;;5007066;28;20476;-84
2022/02/18 10:44:27;;;;;;;11.73;4.17;;;8.40;99.90;;;;;;5007107;28;20441;-84
2022/02/18 10:46:57;;;;;;;10.07;3.80;;;8.30;99.90;;;;;;5015154;28;20435;-84
2022/02/18 10:49:26;;;;;;;9.73;3.53;;;8.40;99.90;;;;;;5010137;28;20484;-84
2022/02/18 10:51:54;;;;;;;7.60;4.20;;;8.30;99.90;;;;;;5007959;28;20450;-83
2022/02/18 10:54:29;;;;;;;5.60;3.37;;;8.30;99.90;;;;;;5010185;28;20522;-84
2022/02/18 10:57:15;;;;;;;10.50;3.47;;;8.00;99.90;;;;;;5014419;28;20473;-84
2022/02/18 10:59:43;;;;;;;6.20;3.60;;;8.40;99.90;;;;;;5014297;28;20390;-84
2022/02/18 11:02:10;;;;;;;10.53;4.13;;;8.40;99.90;;;;;;5010787;28;20439;-85
2022/02/18 11:04:36;;;;;;;8.23;4.33;;;8.40;99.90;;;;;;5012586;28;20415;-84
2022/02/18 11:07:11;;;;;;;10.33;5.50;;;8.40;99.90;;;;;;5012115;28;20437;-83
2022/02/18 11:09:37;;;;;;;9.27;4.90;;;8.40;99.90;;;;;;5012828;28;20421;-83
2022/02/18 11:12:08;;;;;;;5.80;4.40;;;8.40;99.90;;;;;;5010833;28;20946;-84
2022/02/18 11:14:36;;;;;;;11.60;5.17;;;8.40;99.90;;;;;;5019158;28;20471;-83
2022/02/18 11:17:04;;;;;;;12.23;7.00;;;8.40;99.90;;;;;;5018699;28;20442;-83
2022/02/18 11:19:32;;;;;;;8.27;4.47;;;8.30;99.90;;;;;;5017387;28;20440;-84
2022/02/18 11:22:05;;;;;;;9.63;3.43;;;8.30;99.90;;;;;;5015458;28;20445;-85
2022/02/18 11:24:33;;;;;;;8.83;3.47;;;8.20;99.90;;;;;;5010278;28;20498;-84
2022/02/18 11:27:03;;;;;;;5.37;3.20;;;8.00;99.90;;;;;;5009160;28;20468;-84
2022/02/18 11:29:29;;;;;;;3.55;2.90;;;8.00;99.90;;;;;;5008503;28;20452;-84
2022/02/18 11:32:03;;;;;;;5.25;3.10;;;7.90;99.90;;;;;;5009160;28;20587;-83
2022/02/18 11:34:58;;;;;;;4.17;2.57;;;7.60;99.90;;;;;;5009737;28;20204;-83
2022/02/18 11:38:01;;;;;;;5.53;2.58;;;7.50;99.90;;;;;;5012387;28;20457;-84
2022/02/18 11:40:46;;;;;;;6.70;3.70;;;7.30;99.90;;;;;;5019985;28;20189;-83
2022/02/18 11:43:27;;;;;;;6.18;3.03;;;7.00;99.90;;;;;;5019097;28;20219;-83
2022/02/18 11:45:55;;;;;;;8.18;3.80;;;6.90;99.90;;;;;;5012926;28;20223;-84
2022/02/18 11:48:43;;;;;;;3.63;3.28;;;6.90;99.90;;;;;;5006433;28;20723;-84
2022/02/18 11:51:14;;;;;;;4.40;3.03;;;6.90;99.90;;;;;;5007405;28;20288;-84
2022/02/18 11:53:43;;;;;;;4.55;3.58;;;7.00;99.90;;;;;;5012430;28;20189;-84
2022/02/18 11:56:10;;;;;;;7.22;3.45;;;6.70;99.90;;;;;;5013915;28;20205;-83
2022/02/18 11:58:51;;;;;;;4.32;3.50;;;7.00;99.90;;;;;;5010331;28;20223;-84
2022/02/18 12:01:18;;;;;;;8.10;3.30;;;7.00;99.90;;;;;;5013221;28;20206;-84
2022/02/18 12:04:16;;;;;;;5.05;3.03;;;7.00;99.90;;;;;;5015049;28;20209;-84
2022/02/18 12:07:23;;;;;;;5.65;3.47;;;7.00;99.90;;;;;;5007564;28;20231;-84
2022/02/18 12:10:00;;;;;;;4.95;4.47;;;6.90;99.90;;;;;;5009361;28;20181;-84
2022/02/18 12:12:29;;;;;;;6.25;3.47;;;7.10;99.90;;;;;;5023708;22;20235;-80
2022/02/18 12:14:58;;;;;;;7.85;4.28;;;7.00;99.90;;;;;;5012034;28;20215;-81
2022/02/18 12:17:26;;;;;;;4.30;3.42;;;7.10;99.90;;;;;;5008155;28;20221;-80
2022/02/18 12:19:54;;;;;;;5.70;2.83;;;7.10;99.90;;;;;;5006320;28;20215;-80
2022/02/18 12:22:36;;;;;;;6.60;3.30;;;7.20;99.90;;;;;;4999581;28;20228;-81
2022/02/18 12:25:06;;;;;;;5.07;3.00;;;7.20;99.90;;;;;;5001611;28;20185;-79
2022/02/18 12:27:37;;;;;;;7.68;2.55;;;7.20;99.90;;;;;;5004771;28;20206;-79
2022/02/18 12:30:33;;;;;;;4.50;2.20;;;7.20;99.90;;;;;;5004381;28;20212;-79
2022/02/18 12:32:59;;;;;;;4.55;3.47;;;7.20;99.90;;;;;;4999632;28;20225;-80
2022/02/18 12:35:31;;;;;;;5.72;3.67;;;7.30;99.90;;;;;;4999990;28;20243;-79
2022/02/18 12:38:02;;;;;;;4.75;1.80;;;7.30;99.90;;;;;;5000125;28;20248;-82
2022/02/18 12:40:29;;;;;;;4.88;2.22;;;7.30;99.90;;;;;;5001143;28;20189;-81
2022/02/18 12:43:00;;;;;;;3.42;3.00;;;7.40;99.90;;;;;;4998925;28;20259;-80
2022/02/18 12:45:37;;;;;;;8.90;3.20;;;7.40;99.90;;;;;;4998533;28;20232;-81
2022/02/18 12:48:04;;;;;;;3.50;3.20;;;7.40;99.90;;;;;;4999454;28;20249;-81
2022/02/18 12:50:32;;;;;;;3.97;3.20;;;7.40;99.90;;;;;;4999623;28;20205;-81
2022/02/18 12:53:00;;;;;;;3.30;2.35;;;7.40;99.90;;;;;;4999859;28;20329;-81
2022/02/18 12:55:27;;;;;;;7.72;2.38;;;7.40;99.90;;;;;;4999635;28;20229;-79
2022/02/18 12:57:54;;;;;;;3.80;2.35;;;7.50;99.90;;;;;;4998541;28;20221;-79
2022/02/18 13:00:20;;;;;;;4.22;2.67;;;7.50;99.90;;;;;;4997311;28;20675;-80
2022/02/18 13:02:48;;;;;;;6.80;3.40;;;7.50;99.90;;;;;;5000114;28;20225;-80
2022/02/18 13:05:17;;;;;;;4.13;2.80;;;7.50;99.90;;;;;;5000842;28;20292;-79
2022/02/18 13:07:45;;;;;;;4.80;3.28;;;7.40;99.90;;;;;;5000052;28;20212;-80
2022/02/18 13:10:14;;;;;;;10.25;3.42;;;7.40;99.90;;;;;;5002659;28;20209;-80
2022/02/18 13:12:42;;;;;;;5.65;5.05;;;7.40;99.90;;;;;;5006479;28;20618;-80
2022/02/18 13:15:12;;;;;;;5.32;3.17;;;7.30;99.90;;;;;;5000324;28;20213;-80
2022/02/18 13:17:41;;;;;;;9.00;4.00;;;7.30;99.90;;;;;;5001498;28;20217;-80
2022/02/18 13:20:09;;;;;;;9.40;3.00;;;7.20;99.90;;;;;;5004300;28;20228;-81
2022/02/18 13:22:38;;;;;;;7.50;4.10;;;7.10;99.90;;;;;;5005240;28;20288;-79
2022/02/18 13:25:27;;;;;;;9.82;4.00;;;6.90;99.90;;;;;;5003567;28;20212;-79
2022/02/18 13:27:55;;;;;;;7.30;3.10;;;6.90;99.90;;;;;;5001338;28;20239;-81
2022/02/18 13:30:23;;;;;;;9.18;3.30;;;6.80;99.90;;;;;;5000739;28;20588;-82
2022/02/18 13:33:02;;;;;;;7.30;3.63;;;7.10;99.90;;;;;;5006102;28;20240;-81
2022/02/18 13:35:30;;;;;;;9.05;3.25;;;6.60;99.90;;;;;;5003528;28;20235;-81
2022/02/18 13:37:57;;;;;;;14.07;3.25;;;6.60;99.90;;;;;;5008665;28;20225;-80
2022/02/18 13:40:26;;;;;;;9.75;3.35;;;6.60;99.90;;;;;;5004444;28;20216;-80
2022/02/18 13:42:57;;;;;;;14.35;3.88;;;6.50;99.90;;;;;;5002085;28;20228;-81
2022/02/18 13:45:23;;;;;;;7.82;3.42;;;5.70;99.90;;;;;;5006675;28;20651;-81
2022/02/18 13:47:51;;;;;;;4.18;3.78;;;6.50;99.90;;;;;;5006208;28;20205;-82
2022/02/18 13:50:18;;;;;;;6.57;3.58;;;6.40;99.90;;;;;;5006887;28;20256;-80
2022/02/18 13:52:45;;;;;;;6.18;3.55;;;6.40;99.90;;;;;;5005873;28;20221;-80
2022/02/18 13:55:21;;;;;;;9.98;3.95;;;6.40;99.90;;;;;;5005862;28;20220;-80
2022/02/18 13:57:49;;;;;;;12.38;4.25;;;6.40;99.90;;;;;;5004604;28;20232;-80
2022/02/18 14:00:34;;;;;;;7.57;4.45;;;6.30;99.90;;;;;;5006592;28;20205;-79
2022/02/18 14:03:04;;;;;;;6.20;4.13;;;6.30;99.90;;;;;;5007329;28;20220;-79
2022/02/18 14:05:31;;;;;;;16.58;5.35;;;6.40;99.90;;;;;;5008112;28;20189;-80
2022/02/18 14:08:09;;;;;;;16.02;5.18;;;6.40;99.90;;;;;;5009440;28;20233;-80
2022/02/18 14:10:40;;;;;;;9.98;3.50;;;6.40;99.90;;;;;;5007776;28;20212;-81
2022/02/18 14:13:21;;;;;;;11.52;5.22;;;6.40;99.90;;;;;;5006516;28;20316;-80
2022/02/18 14:16:03;;;;;;;13.18;4.60;;;6.70;99.90;;;;;;5005844;28;20687;-80
2022/02/18 14:18:29;;;;;;;7.00;3.17;;;6.50;99.90;;;;;;5005541;28;20704;-80
2022/02/18 14:21:00;;;;;;;15.05;4.65;;;6.50;99.90;;;;;;5005351;28;20256;-82
2022/02/18 14:23:30;;;;;;;14.60;5.32;;;6.50;99.90;;;;;;5004945;28;20233;-81
2022/02/18 14:25:56;;;;;;;14.05;5.63;;;6.50;99.90;;;;;;5006146;28;20194;-81
2022/02/18 14:28:26;;;;;;;13.23;4.50;;;6.50;99.90;;;;;;5003827;28;20213;-81
2022/02/18 14:30:56;;;;;;;11.70;3.28;;;6.50;99.90;;;;;;5003216;28;20205;-79
2022/02/18 14:33:24;;;;;;;14.27;4.95;;;6.50;99.90;;;;;;5004284;28;20724;-79
2022/02/18 14:35:51;;;;;;;12.52;5.30;;;6.50;99.90;;;;;;5004347;28;20209;-80
2022/02/18 14:38:18;;;;;;;13.13;4.95;;;6.50;99.90;;;;;;5003527;28;20224;-82
2022/02/18 14:40:46;;;;;;;18.13;5.32;;;6.50;99.90;;;;;;5005078;28;20209;-81
2022/02/18 14:43:14;;;;;;;12.00;5.20;;;6.60;99.90;;;;;;5004354;28;20232;-81
2022/02/18 14:45:42;;;;;;;9.07;4.00;;;6.60;99.90;;;;;;5003786;28;20209;-81
2022/02/18 14:48:11;;;;;;;10.20;4.65;;;6.60;99.90;;;;;;5004044;28;20209;-82
2022/02/18 14:50:40;;;;;;;12.57;3.75;;;6.60;99.90;;;;;;5004167;28;20690;-80
2022/02/18 14:53:09;;;;;;;12.27;4.03;;;6.60;99.90;;;;;;5003515;28;20213;-81
2022/02/18 14:55:36;;;;;;;9.43;4.20;;;6.70;99.90;;;;;;5004490;28;20209;-80
2022/02/18 14:58:04;;;;;;;6.50;4.40;;;6.70;99.90;;;;;;5005113;28;20225;-81
2022/02/18 15:00:32;;;;;;;11.73;4.60;;;6.70;99.90;;;;;;5002595;28;20251;-81
2022/02/18 15:03:06;;;;;;;11.25;4.78;;;6.80;99.90;;;;;;5004784;28;20319;-81
2022/02/18 15:05:39;;;;;;;11.18;5.65;;;6.80;99.90;;;;;;5004000;28;20193;-81
2022/02/18 15:08:06;;;;;;;9.07;5.88;;;6.80;99.90;;;;;;5004996;28;20185;-81
2022/02/18 15:10:34;;;;;;;13.00;5.60;;;6.80;99.90;;;;;;5003073;28;20212;-81
2022/02/18 15:13:01;;;;;;;11.05;4.53;;;6.80;99.90;;;;;;5002692;28;20237;-81